Time;durP1;ratioP1;P1;durP2;ratioP2;P2;SDS_P1;SDS_P2;PMS_P1;PMS_P2;Temp;Humidity;BMP_temperature;BMP_pressure;BME280_temperature;BME280_humidity;BME280_pressure;Samples;Min_cycle;Max_cycle;Signal;HPM_P1;HPM_P2
2023/06/25 00:00:11;;;;;;;8.25;7.32;;;18.80;99.90;;;;;;6151533;23;20002;-81
2023/06/25 00:02:36;;;;;;;7.28;6.57;;;18.80;99.90;;;;;;6151946;23;20044;-81
2023/06/25 00:05:02;;;;;;;6.82;6.00;;;18.80;99.90;;;;;;6152231;23;20006;-81
2023/06/25 00:07:28;;;;;;;8.13;7.35;;;18.80;99.90;;;;;;6152271;23;20431;-81
2023/06/25 00:09:55;;;;;;;10.18;7.78;;;18.70;99.90;;;;;;6153299;23;20028;-81
2023/06/25 00:12:21;;;;;;;7.35;6.65;;;18.70;99.90;;;;;;6153505;23;20016;-81
2023/06/25 00:14:47;;;;;;;8.13;7.30;;;18.60;99.90;;;;;;6154729;23;20015;-81
2023/06/25 00:17:13;;;;;;;7.25;6.55;;;18.60;99.90;;;;;;6177984;23;20045;-80
2023/06/25 00:19:41;;;;;;;7.28;6.55;;;18.60;99.90;;;;;;6155916;23;20005;-81
2023/06/25 00:22:07;;;;;;;10.27;7.68;;;18.50;99.90;;;;;;6149587;23;20343;-81
2023/06/25 00:24:32;;;;;;;8.07;7.15;;;18.50;99.90;;;;;;6151150;23;20045;-80
2023/06/25 00:26:58;;;;;;;9.63;8.60;;;18.40;99.90;;;;;;6152322;23;20014;-80
2023/06/25 00:29:23;;;;;;;10.10;7.43;;;18.40;99.90;;;;;;6152015;23;20005;-80
2023/06/25 00:31:49;;;;;;;9.32;8.00;;;18.30;99.90;;;;;;6153120;23;20029;-79
2023/06/25 00:34:14;;;;;;;8.55;7.30;;;18.30;99.90;;;;;;6150431;23;20031;-80
2023/06/25 00:36:40;;;;;;;10.07;8.05;;;18.30;99.90;;;;;;6142793;23;20109;-82
2023/06/25 00:39:06;;;;;;;8.07;7.20;;;18.20;99.90;;;;;;6151964;23;20009;-80
2023/06/25 00:41:32;;;;;;;8.02;7.22;;;18.20;99.90;;;;;;6153120;23;20335;-80
2023/06/25 00:43:57;;;;;;;7.38;6.55;;;18.20;99.90;;;;;;6153032;23;20014;-80
2023/06/25 00:46:23;;;;;;;9.40;7.63;;;18.20;99.90;;;;;;6151883;23;20093;-81
2023/06/25 00:48:49;;;;;;;7.88;7.07;;;18.10;99.90;;;;;;6151412;23;20013;-80
2023/06/25 00:51:16;;;;;;;8.38;7.57;;;18.10;99.90;;;;;;6150650;23;20084;-81
2023/06/25 00:53:41;;;;;;;8.73;7.10;;;18.10;99.90;;;;;;6149054;23;20328;-81
2023/06/25 00:56:07;;;;;;;7.90;7.20;;;18.00;99.90;;;;;;6148165;23;20082;-82
2023/06/25 00:58:38;;;;;;;9.13;7.95;;;18.00;99.90;;;;;;6149393;23;20029;-82
2023/06/25 01:01:21;;;;;;;8.23;6.95;;;18.00;99.90;;;;;;6150541;23;20068;-81
2023/06/25 01:03:54;;;;;;;7.38;6.45;;;18.00;99.90;;;;;;6150294;23;20005;-80
2023/06/25 01:06:33;;;;;;;7.40;6.47;;;18.00;99.90;;;;;;6152188;23;20399;-80
2023/06/25 01:09:00;;;;;;;11.93;8.75;;;17.90;99.90;;;;;;6152942;23;20431;-81
2023/06/25 01:11:29;;;;;;;9.63;7.60;;;17.90;99.90;;;;;;6149216;23;20002;-80
2023/06/25 01:13:55;;;;;;;8.50;7.63;;;17.90;99.90;;;;;;6150484;23;20006;-81
2023/06/25 01:16:21;;;;;;;8.88;7.63;;;17.80;99.90;;;;;;6150482;23;20006;-81
2023/06/25 01:18:48;;;;;;;7.97;7.13;;;17.80;99.90;;;;;;6150570;23;20013;-81
2023/06/25 01:21:16;;;;;;;9.40;7.60;;;17.70;99.90;;;;;;6151030;23;20009;-80
2023/06/25 01:23:42;;;;;;;8.70;7.13;;;17.70;99.90;;;;;;6151028;23;20001;-81
2023/06/25 01:26:08;;;;;;;8.50;7.70;;;17.70;99.90;;;;;;6151905;23;20476;-81
2023/06/25 01:28:34;;;;;;;10.00;7.32;;;17.70;99.90;;;;;;6150977;23;20002;-81
2023/06/25 01:30:59;;;;;;;8.45;7.65;;;17.60;99.90;;;;;;6150390;23;20443;-82
2023/06/25 01:33:26;;;;;;;8.48;7.68;;;17.60;99.90;;;;;;6150342;23;20016;-81
2023/06/25 01:35:54;;;;;;;7.82;7.07;;;17.60;99.90;;;;;;6150371;23;20056;-81
2023/06/25 01:38:20;;;;;;;8.43;7.43;;;17.60;99.90;;;;;;6175899;23;20064;-81
2023/06/25 01:40:46;;;;;;;10.35;8.73;;;17.60;99.90;;;;;;6175357;23;20033;-81
2023/06/25 01:43:11;;;;;;;9.95;7.97;;;17.50;99.90;;;;;;6150808;23;20001;-79
2023/06/25 01:45:37;;;;;;;9.18;8.25;;;17.50;99.90;;;;;;6173913;23;20021;-81
2023/06/25 01:48:02;;;;;;;11.18;9.18;;;17.50;99.90;;;;;;6150642;23;20020;-82
2023/06/25 01:50:28;;;;;;;9.80;8.63;;;17.50;99.90;;;;;;6151045;23;20177;-81
2023/06/25 01:52:53;;;;;;;9.85;7.90;;;17.40;99.90;;;;;;6153653;23;20002;-80
2023/06/25 01:55:19;;;;;;;10.90;9.27;;;17.40;99.90;;;;;;6151599;23;20064;-80
2023/06/25 01:57:44;;;;;;;10.48;8.70;;;17.40;99.90;;;;;;6153036;23;20005;-81
2023/06/25 02:00:11;;;;;;;10.48;8.73;;;17.30;99.90;;;;;;6154210;23;20033;-81
2023/06/25 02:02:37;;;;;;;9.10;8.18;;;17.40;99.90;;;;;;6152814;23;20029;-81
2023/06/25 02:05:03;;;;;;;9.15;7.85;;;17.30;99.90;;;;;;6151958;23;20017;-81
2023/06/25 02:07:28;;;;;;;9.70;8.70;;;17.30;99.90;;;;;;6152744;23;20090;-81
2023/06/25 02:09:54;;;;;;;11.35;9.40;;;17.30;99.90;;;;;;6150863;23;20060;-81
2023/06/25 02:12:20;;;;;;;11.32;9.73;;;17.30;99.90;;;;;;6152708;23;20032;-81
2023/06/25 02:14:46;;;;;;;9.88;8.88;;;17.20;99.90;;;;;;6153002;23;20005;-80
2023/06/25 02:17:11;;;;;;;12.50;9.50;;;17.20;99.90;;;;;;6153196;23;20080;-81
2023/06/25 02:19:37;;;;;;;11.57;9.48;;;17.20;99.90;;;;;;6152742;23;20009;-81
2023/06/25 02:22:03;;;;;;;11.52;9.00;;;17.20;99.90;;;;;;6154573;23;20005;-80
2023/06/25 02:24:28;;;;;;;9.68;8.43;;;17.20;99.90;;;;;;6151132;23;20469;-80
2023/06/25 02:26:54;;;;;;;8.98;8.00;;;17.10;99.90;;;;;;6152759;23;20060;-81
2023/06/25 02:29:19;;;;;;;9.38;8.15;;;17.10;99.90;;;;;;6152377;23;20017;-80
2023/06/25 02:31:45;;;;;;;8.85;7.95;;;17.10;99.90;;;;;;6151653;23;20045;-80
2023/06/25 02:34:11;;;;;;;9.40;8.43;;;17.10;99.90;;;;;;6151923;23;20013;-82
2023/06/25 02:36:36;;;;;;;11.00;9.85;;;17.00;99.90;;;;;;6154331;23;20001;-81
2023/06/25 02:39:02;;;;;;;11.55;9.20;;;17.00;99.90;;;;;;6153034;23;20008;-82
2023/06/25 02:41:28;;;;;;;9.73;8.75;;;17.00;99.90;;;;;;6152247;23;20001;-81
2023/06/25 02:43:53;;;;;;;7.93;7.13;;;17.00;99.90;;;;;;6151520;23;20017;-79
2023/06/25 02:46:19;;;;;;;11.35;8.52;;;16.90;99.90;;;;;;6151824;23;20097;-79
2023/06/25 02:48:44;;;;;;;9.40;7.97;;;16.90;99.90;;;;;;6176359;23;20422;-80
2023/06/25 02:51:10;;;;;;;9.82;8.75;;;16.90;99.90;;;;;;6151689;23;20347;-81
2023/06/25 02:53:36;;;;;;;9.60;8.63;;;16.90;99.90;;;;;;6151628;23;20442;-81
2023/06/25 02:56:02;;;;;;;8.52;7.70;;;16.90;99.90;;;;;;6149968;23;20008;-80
2023/06/25 02:58:27;;;;;;;10.13;8.80;;;16.80;99.90;;;;;;6151237;23;20005;-79
2023/06/25 03:00:53;;;;;;;9.85;8.65;;;16.90;99.90;;;;;;6163736;23;20033;-80
2023/06/25 03:03:19;;;;;;;8.15;7.32;;;16.80;99.90;;;;;;6191562;23;20244;-81
2023/06/25 03:05:44;;;;;;;10.90;8.02;;;16.80;99.90;;;;;;6164198;23;20016;-81
2023/06/25 03:08:10;;;;;;;9.90;8.55;;;16.80;99.90;;;;;;6156941;23;20695;-80
2023/06/25 03:10:37;;;;;;;10.32;8.02;;;16.80;99.90;;;;;;6156868;23;20001;-81
2023/06/25 03:13:06;;;;;;;8.65;7.75;;;16.80;99.90;;;;;;6181203;23;20443;-81
2023/06/25 03:15:32;;;;;;;11.60;9.18;;;16.80;99.90;;;;;;6154481;23;20227;-80
2023/06/25 03:17:57;;;;;;;10.05;7.95;;;16.80;99.90;;;;;;6157945;23;20001;-82
2023/06/25 03:20:23;;;;;;;9.63;8.32;;;16.80;99.90;;;;;;6180398;23;20002;-81
2023/06/25 03:22:49;;;;;;;9.32;8.43;;;16.80;99.90;;;;;;6156824;23;20012;-81
2023/06/25 03:25:14;;;;;;;9.32;8.32;;;16.70;99.90;;;;;;6153376;23;20010;-80
2023/06/25 03:27:40;;;;;;;11.80;8.77;;;16.80;99.90;;;;;;6153433;23;20099;-79
2023/06/25 03:30:06;;;;;;;9.90;8.90;;;16.70;99.90;;;;;;6157993;23;20024;-79
2023/06/25 03:32:32;;;;;;;9.88;8.45;;;16.70;99.90;;;;;;6154824;23;20044;-80
2023/06/25 03:34:59;;;;;;;9.38;8.27;;;16.70;99.90;;;;;;6156328;23;20002;-81
2023/06/25 03:37:24;;;;;;;9.43;8.18;;;16.70;99.90;;;;;;6154348;23;20084;-82
2023/06/25 03:39:50;;;;;;;8.73;7.85;;;16.70;99.90;;;;;;6154041;23;20313;-81
2023/06/25 03:42:16;;;;;;;10.02;8.60;;;16.70;99.90;;;;;;6154311;23;20336;-82
2023/06/25 03:44:47;;;;;;;11.70;8.40;;;16.80;99.90;;;;;;6153311;23;20016;-80
2023/06/25 03:47:12;;;;;;;8.88;8.00;;;16.80;99.90;;;;;;6179066;23;20006;-82
2023/06/25 03:49:38;;;;;;;9.85;8.85;;;16.70;99.90;;;;;;6152713;23;20028;-81
2023/06/25 03:52:04;;;;;;;8.20;7.40;;;16.80;99.90;;;;;;6178134;23;20012;-80
2023/06/25 03:54:29;;;;;;;10.27;8.70;;;16.80;99.90;;;;;;6151289;23;20006;-80
2023/06/25 03:56:55;;;;;;;8.32;7.35;;;16.90;99.90;;;;;;6154774;23;20076;-81
2023/06/25 03:59:20;;;;;;;10.07;8.25;;;16.80;99.90;;;;;;6155113;23;20085;-81
2023/06/25 04:01:46;;;;;;;8.80;7.90;;;16.90;99.90;;;;;;6153983;23;20056;-80
2023/06/25 04:04:11;;;;;;;9.18;8.27;;;16.90;99.90;;;;;;6152069;23;20017;-80
2023/06/25 04:06:37;;;;;;;10.00;8.30;;;16.90;99.90;;;;;;6151941;23;20198;-79
2023/06/25 04:09:03;;;;;;;9.32;8.32;;;16.90;99.90;;;;;;6152609;23;20089;-81
2023/06/25 04:11:29;;;;;;;8.93;7.85;;;17.00;99.90;;;;;;6149777;23;20017;-82
2023/06/25 04:13:54;;;;;;;9.77;8.80;;;17.00;99.90;;;;;;6152180;23;20367;-80
2023/06/25 04:16:20;;;;;;;9.88;8.70;;;17.00;99.90;;;;;;6152679;23;20033;-80
2023/06/25 04:18:45;;;;;;;10.80;9.68;;;17.10;99.90;;;;;;6177452;23;20005;-80
2023/06/25 04:21:11;;;;;;;9.93;8.85;;;17.10;99.90;;;;;;6153755;23;19994;-80
2023/06/25 04:23:37;;;;;;;10.60;8.80;;;17.10;99.90;;;;;;6152438;23;20088;-79
2023/06/25 04:26:02;;;;;;;10.40;9.30;;;17.10;99.90;;;;;;6152623;23;20055;-79
2023/06/25 04:28:28;;;;;;;12.77;10.43;;;17.20;99.90;;;;;;6152962;23;20335;-81
2023/06/25 04:30:53;;;;;;;9.20;8.18;;;17.20;99.90;;;;;;6152239;23;20494;-81
2023/06/25 04:33:20;;;;;;;11.02;9.82;;;17.30;99.90;;;;;;6155149;23;20575;-81
2023/06/25 04:35:46;;;;;;;17.17;9.70;;;17.30;99.90;;;;;;6151477;23;20009;-80
2023/06/25 04:38:11;;;;;;;10.82;9.63;;;17.30;99.90;;;;;;6151415;23;20032;-80
2023/06/25 04:40:37;;;;;;;11.45;9.27;;;17.40;99.90;;;;;;6153132;23;20052;-79
2023/06/25 04:43:02;;;;;;;11.48;10.07;;;17.40;99.90;;;;;;6152136;23;20115;-82
2023/06/25 04:45:28;;;;;;;11.98;9.30;;;17.40;99.90;;;;;;6151421;23;20083;-79
2023/06/25 04:47:54;;;;;;;10.10;9.02;;;17.50;99.90;;;;;;6153710;23;20005;-79
2023/06/25 04:50:20;;;;;;;9.00;8.10;;;17.60;99.90;;;;;;6154310;23;20417;-80
2023/06/25 04:52:45;;;;;;;10.73;9.60;;;17.60;99.90;;;;;;6151473;23;20017;-80
2023/06/25 04:55:11;;;;;;;10.23;8.70;;;17.60;99.90;;;;;;6151240;23;20005;-80
2023/06/25 04:57:37;;;;;;;10.13;9.05;;;17.70;99.90;;;;;;6153749;23;20006;-79
2023/06/25 05:00:04;;;;;;;10.13;9.02;;;17.80;99.90;;;;;;6152680;23;19998;-81
2023/06/25 05:02:29;;;;;;;9.90;8.63;;;17.80;99.90;;;;;;6177197;23;19997;-80
2023/06/25 05:04:55;;;;;;;10.15;9.10;;;17.90;99.90;;;;;;6154289;23;19998;-81
2023/06/25 05:07:20;;;;;;;11.38;9.60;;;18.00;99.90;;;;;;6154769;23;20009;-81
2023/06/25 05:09:46;;;;;;;11.68;9.50;;;18.00;99.90;;;;;;6155976;23;20001;-82
2023/06/25 05:12:11;;;;;;;9.95;8.75;;;18.10;99.90;;;;;;6150854;23;20032;-80
2023/06/25 05:14:37;;;;;;;10.25;9.02;;;18.20;99.90;;;;;;6153531;23;20017;-81
2023/06/25 05:17:03;;;;;;;14.15;9.30;;;18.20;99.90;;;;;;6152142;23;20013;-81
2023/06/25 05:19:29;;;;;;;9.55;7.85;;;18.30;99.90;;;;;;6154268;23;20001;-81
2023/06/25 05:21:55;;;;;;;9.05;7.00;;;18.40;99.90;;;;;;6156005;23;20313;-81
2023/06/25 05:24:20;;;;;;;8.77;7.75;;;18.50;99.90;;;;;;6154777;23;20008;-82
2023/06/25 05:26:46;;;;;;;10.30;7.88;;;18.50;99.90;;;;;;6155381;23;20073;-79
2023/06/25 05:29:11;;;;;;;9.00;7.78;;;18.70;99.90;;;;;;6151469;23;20134;-80
2023/06/25 05:31:37;;;;;;;8.63;7.25;;;18.70;99.90;;;;;;6151953;23;20504;-81
2023/06/25 05:34:02;;;;;;;10.98;8.38;;;18.80;99.90;;;;;;6152879;23;20009;-81
2023/06/25 05:36:29;;;;;;;11.50;7.55;;;18.90;99.90;;;;;;6152967;23;20001;-80
2023/06/25 05:38:55;;;;;;;8.15;7.20;;;19.00;99.90;;;;;;6176024;23;20029;-80
2023/06/25 05:41:20;;;;;;;8.05;7.25;;;19.10;99.90;;;;;;6153517;23;20574;-79
2023/06/25 05:43:46;;;;;;;8.68;7.78;;;19.20;99.90;;;;;;6152621;23;20009;-80
2023/06/25 05:46:13;;;;;;;7.90;6.82;;;19.30;99.90;;;;;;6150946;23;19997;-80
2023/06/25 05:48:39;;;;;;;7.63;6.82;;;19.40;99.90;;;;;;6175899;23;20060;-80
2023/06/25 05:51:05;;;;;;;7.50;6.70;;;19.60;99.90;;;;;;6153196;23;20012;-81
2023/06/25 05:53:41;;;;;;;7.28;6.43;;;19.70;99.90;;;;;;6151180;23;20001;-79
2023/06/25 05:56:07;;;;;;;7.57;6.50;;;19.80;99.90;;;;;;6152232;23;20020;-80
2023/06/25 05:58:34;;;;;;;8.63;7.00;;;20.00;99.90;;;;;;6151872;23;20341;-79
2023/06/25 06:00:59;;;;;;;7.05;6.20;;;20.10;99.90;;;;;;6150619;23;20088;-80
2023/06/25 06:03:25;;;;;;;7.80;6.35;;;20.20;99.90;;;;;;6151755;23;20398;-79
2023/06/25 06:05:50;;;;;;;10.27;7.10;;;20.40;99.90;;;;;;6150579;23;20060;-80
2023/06/25 06:08:16;;;;;;;7.07;6.05;;;20.50;99.90;;;;;;6151424;23;19997;-80
2023/06/25 06:10:41;;;;;;;9.95;6.93;;;20.60;99.90;;;;;;6150000;23;20047;-81
2023/06/25 06:13:07;;;;;;;8.82;7.68;;;20.80;99.90;;;;;;6151626;23;20052;-80
2023/06/25 06:15:32;;;;;;;8.15;6.70;;;20.90;99.90;;;;;;6149915;23;20013;-79
2023/06/25 06:17:58;;;;;;;7.25;6.50;;;21.00;99.90;;;;;;6152709;23;20002;-80
2023/06/25 06:20:23;;;;;;;7.90;6.30;;;21.10;99.90;;;;;;6152118;23;20331;-80
2023/06/25 06:22:49;;;;;;;8.25;6.18;;;21.30;99.90;;;;;;6176282;23;20017;-79
2023/06/25 06:25:15;;;;;;;6.13;5.53;;;21.40;99.90;;;;;;6151543;23;20002;-82
2023/06/25 06:27:40;;;;;;;6.30;5.30;;;21.50;99.90;;;;;;6152162;23;20005;-81
2023/06/25 06:30:06;;;;;;;8.07;6.57;;;21.70;99.90;;;;;;6152705;23;20012;-80
2023/06/25 06:32:32;;;;;;;5.45;4.95;;;21.80;99.90;;;;;;6151843;23;20447;-83
2023/06/25 06:34:57;;;;;;;6.47;5.57;;;21.80;99.90;;;;;;6151522;23;20080;-80
2023/06/25 06:37:23;;;;;;;5.88;5.20;;;22.00;99.90;;;;;;6152808;23;20080;-81
2023/06/25 06:39:48;;;;;;;5.88;5.35;;;22.10;99.90;;;;;;6154254;23;20006;-81
2023/06/25 06:42:14;;;;;;;7.80;6.05;;;22.20;99.90;;;;;;6154691;23;19997;-80
2023/06/25 06:44:39;;;;;;;7.20;5.22;;;22.40;99.90;;;;;;6152999;23;20009;-81
2023/06/25 06:47:05;;;;;;;6.40;5.20;;;22.50;99.90;;;;;;6155638;23;20006;-81
2023/06/25 06:49:30;;;;;;;7.63;5.95;;;22.60;99.90;;;;;;6181263;23;20454;-80
2023/06/25 06:51:56;;;;;;;6.28;5.68;;;22.70;99.90;;;;;;6152803;23;20060;-80
2023/06/25 06:54:21;;;;;;;6.25;5.65;;;22.80;99.90;;;;;;6153572;23;20060;-80
2023/06/25 06:56:47;;;;;;;5.00;4.50;;;22.90;99.90;;;;;;6154644;23;20044;-81
2023/06/25 06:59:12;;;;;;;5.35;4.85;;;23.00;99.90;;;;;;6178357;23;20001;-79
2023/06/25 07:01:38;;;;;;;5.95;4.60;;;23.10;99.90;;;;;;6153928;23;20033;-80
2023/06/25 07:04:04;;;;;;;4.43;4.00;;;23.20;99.90;;;;;;6153237;23;20013;-79
2023/06/25 07:06:29;;;;;;;4.60;4.07;;;23.40;99.90;;;;;;6153672;23;20032;-80
2023/06/25 07:08:55;;;;;;;4.60;4.20;;;23.50;99.90;;;;;;6152467;23;20005;-80
2023/06/25 07:11:20;;;;;;;5.15;4.75;;;23.70;99.90;;;;;;6152328;23;20319;-80
2023/06/25 07:13:47;;;;;;;4.68;4.28;;;23.80;99.90;;;;;;6152973;23;20005;-80
2023/06/25 07:16:12;;;;;;;4.60;4.20;;;23.90;99.90;;;;;;6160811;23;20002;-83
2023/06/25 07:18:38;;;;;;;4.63;4.20;;;24.00;99.90;;;;;;6159759;23;20006;-81
2023/06/25 07:21:05;;;;;;;5.03;4.53;;;24.10;99.90;;;;;;6154768;23;20072;-81
2023/06/25 07:23:31;;;;;;;4.85;3.65;;;24.20;99.90;;;;;;6152283;23;20012;-81
2023/06/25 07:25:57;;;;;;;5.30;4.43;;;24.30;99.90;;;;;;6152820;23;20009;-80
2023/06/25 07:28:22;;;;;;;5.15;4.20;;;24.50;99.90;;;;;;6151636;23;20064;-80
2023/06/25 07:30:48;;;;;;;4.50;4.03;;;24.60;99.90;;;;;;6150685;23;20096;-81
2023/06/25 07:33:16;;;;;;;4.47;4.07;;;24.60;99.90;;;;;;6151800;23;20044;-79
2023/06/25 07:35:42;;;;;;;4.38;3.97;;;24.80;99.90;;;;;;6150725;23;20084;-82
2023/06/25 07:38:08;;;;;;;5.15;4.20;;;24.90;99.90;;;;;;6152408;23;19998;-80
2023/06/25 07:40:33;;;;;;;4.45;4.05;;;24.80;99.90;;;;;;6176870;23;20001;-80
2023/06/25 07:42:59;;;;;;;3.97;3.55;;;24.90;99.90;;;;;;6151335;23;20001;-83
2023/06/25 07:45:24;;;;;;;4.68;4.10;;;24.90;99.90;;;;;;6151067;23;20002;-82
2023/06/25 07:47:50;;;;;;;4.82;4.15;;;24.90;99.90;;;;;;6151580;23;20010;-80
2023/06/25 07:50:15;;;;;;;4.18;3.88;;;25.00;99.90;;;;;;6150661;23;20056;-82
2023/06/25 07:52:41;;;;;;;4.72;4.32;;;25.10;99.90;;;;;;6151497;23;20002;-81
2023/06/25 07:55:07;;;;;;;5.63;4.10;;;25.20;99.90;;;;;;6174266;23;20009;-82
2023/06/25 07:57:32;;;;;;;5.43;4.93;;;25.20;99.90;;;;;;6151003;23;20104;-81
2023/06/25 07:59:58;;;;;;;4.22;3.80;;;25.40;99.90;;;;;;6153341;23;20001;-82
2023/06/25 08:02:23;;;;;;;5.22;4.50;;;25.50;99.90;;;;;;6153942;23;20010;-81
2023/06/25 08:04:49;;;;;;;4.72;4.22;;;25.70;99.90;;;;;;6151014;23;20088;-82
2023/06/25 08:07:15;;;;;;;4.60;4.18;;;25.90;99.90;;;;;;6152557;23;20009;-80
2023/06/25 08:09:41;;;;;;;5.53;4.28;;;26.00;99.90;;;;;;6155904;23;20006;-81
2023/06/25 08:12:07;;;;;;;5.20;4.70;;;26.10;99.90;;;;;;6154388;23;20153;-80
2023/06/25 08:14:32;;;;;;;5.03;4.47;;;26.30;99.90;;;;;;6152673;23;20043;-80
2023/06/25 08:16:58;;;;;;;6.63;4.70;;;26.40;99.90;;;;;;6154682;23;20364;-81
2023/06/25 08:19:23;;;;;;;4.97;4.25;;;26.60;99.90;;;;;;6154368;23;20375;-82
2023/06/25 08:21:49;;;;;;;5.38;4.20;;;26.80;99.90;;;;;;6153689;23;20085;-81
2023/06/25 08:24:14;;;;;;;5.00;4.10;;;26.90;99.90;;;;;;6153946;23;20009;-81
2023/06/25 08:26:40;;;;;;;6.43;5.55;;;27.00;99.90;;;;;;6157241;23;20012;-82
2023/06/25 08:29:06;;;;;;;4.85;4.40;;;27.10;99.90;;;;;;6159016;23;20088;-82
2023/06/25 08:31:31;;;;;;;4.45;4.05;;;27.20;99.60;;;;;;6177029;23;20021;-81
2023/06/25 08:33:57;;;;;;;4.93;4.45;;;27.20;99.70;;;;;;6150671;23;20466;-82
2023/06/25 08:36:22;;;;;;;4.32;4.03;;;27.40;98.90;;;;;;6150522;23;20008;-82
2023/06/25 08:38:48;;;;;;;5.18;4.60;;;27.50;98.50;;;;;;6153969;23;20081;-81
2023/06/25 08:41:13;;;;;;;8.05;5.18;;;27.60;99.80;;;;;;6151534;23;20558;-81
2023/06/25 08:43:40;;;;;;;6.00;5.40;;;27.60;97.40;;;;;;6152012;23;20014;-82
2023/06/25 08:46:08;;;;;;;4.97;4.57;;;27.70;97.90;;;;;;6153019;23;20001;-81
2023/06/25 08:48:36;;;;;;;5.50;5.00;;;27.70;98.50;;;;;;6150936;23;20005;-82
2023/06/25 08:51:06;;;;;;;5.75;5.25;;;27.90;98.20;;;;;;6150557;23;20006;-82
2023/06/25 08:53:32;;;;;;;6.78;5.95;;;28.00;98.20;;;;;;6151724;23;20067;-81
2023/06/25 08:56:00;;;;;;;6.13;5.53;;;28.10;97.20;;;;;;6150438;23;20542;-81
2023/06/25 08:58:26;;;;;;;5.90;5.25;;;28.10;96.70;;;;;;6150746;23;20059;-81
2023/06/25 09:00:51;;;;;;;6.63;6.00;;;28.10;98.40;;;;;;6149014;23;20017;-81
2023/06/25 09:03:17;;;;;;;5.95;5.45;;;28.10;97.20;;;;;;6176249;23;20595;-81
2023/06/25 09:05:57;;;;;;;6.85;5.00;;;28.10;97.40;;;;;;6150373;23;20005;-81
2023/06/25 09:08:24;;;;;;;6.25;5.75;;;28.20;98.20;;;;;;6151095;23;20701;-81
2023/06/25 09:10:54;;;;;;;5.82;5.22;;;28.20;96.60;;;;;;6176039;23;20495;-82
2023/06/25 09:13:25;;;;;;;6.82;6.13;;;28.20;97.70;;;;;;6150351;23;20006;-81
2023/06/25 09:15:53;;;;;;;7.45;5.65;;;28.30;96.80;;;;;;6148751;23;20068;-81
2023/06/25 09:18:21;;;;;;;6.03;5.43;;;28.40;97.20;;;;;;6156763;23;20071;-81
2023/06/25 09:20:48;;;;;;;6.55;5.57;;;28.40;97.00;;;;;;6151128;23;20036;-82
2023/06/25 09:23:19;;;;;;;6.03;5.53;;;28.40;96.40;;;;;;6152033;23;20001;-81
2023/06/25 09:25:45;;;;;;;5.75;4.90;;;28.30;95.70;;;;;;6176284;23;20359;-81
2023/06/25 09:28:10;;;;;;;5.97;5.32;;;28.10;97.20;;;;;;6153153;23;20065;-80
2023/06/25 09:30:38;;;;;;;6.50;5.82;;;28.30;97.30;;;;;;6176080;23;20010;-81
2023/06/25 09:33:05;;;;;;;6.18;5.57;;;28.30;95.70;;;;;;6153727;23;20014;-81
2023/06/25 09:35:31;;;;;;;6.30;5.70;;;28.40;95.20;;;;;;6149900;23;20009;-81
2023/06/25 09:37:57;;;;;;;4.97;4.47;;;28.60;95.30;;;;;;6152903;23;20099;-82
2023/06/25 09:40:22;;;;;;;5.68;5.05;;;28.70;96.40;;;;;;6151747;23;20455;-82
2023/06/25 09:42:52;;;;;;;5.97;5.47;;;28.70;95.60;;;;;;6152363;23;20009;-81
2023/06/25 09:45:20;;;;;;;6.45;5.28;;;28.70;96.40;;;;;;6150510;23;20088;-82
2023/06/25 09:47:47;;;;;;;9.63;5.90;;;28.40;96.00;;;;;;6152050;23;20010;-80
2023/06/25 09:50:19;;;;;;;8.85;7.13;;;28.40;95.50;;;;;;6150153;23;20010;-80
2023/06/25 09:52:52;;;;;;;7.82;5.70;;;28.50;95.30;;;;;;6150451;23;20017;-81
2023/06/25 09:55:20;;;;;;;7.07;6.47;;;28.60;95.30;;;;;;6152157;23;20010;-81
2023/06/25 09:57:47;;;;;;;5.15;4.72;;;28.70;95.60;;;;;;6150186;23;20149;-81
2023/06/25 10:00:13;;;;;;;6.75;6.05;;;28.50;95.50;;;;;;6151874;23;20033;-81
2023/06/25 10:02:39;;;;;;;7.03;6.18;;;28.20;94.80;;;;;;6153595;23;20004;-81
2023/06/25 10:05:05;;;;;;;5.80;5.20;;;28.00;95.50;;;;;;6150850;23;20183;-82
2023/06/25 10:07:31;;;;;;;6.80;6.18;;;28.10;95.80;;;;;;6160322;23;20097;-82
2023/06/25 10:09:57;;;;;;;6.05;5.55;;;28.20;95.50;;;;;;6151998;23;20013;-81
2023/06/25 10:12:23;;;;;;;6.80;5.82;;;28.40;95.90;;;;;;6154595;23;20148;-82
2023/06/25 10:14:49;;;;;;;5.28;4.78;;;28.50;96.00;;;;;;6152061;23;20265;-81
2023/06/25 10:17:15;;;;;;;6.28;5.65;;;28.60;95.20;;;;;;6154626;23;20096;-80
2023/06/25 10:19:52;;;;;;;6.47;5.88;;;28.50;94.30;;;;;;6153725;23;20002;-80
2023/06/25 10:22:22;;;;;;;5.63;5.13;;;28.50;93.60;;;;;;6153630;23;20129;-81
2023/06/25 10:24:49;;;;;;;6.78;4.65;;;28.60;94.70;;;;;;6156981;23;20017;-82
2023/06/25 10:27:24;;;;;;;5.95;5.45;;;28.70;95.80;;;;;;6177794;23;20016;-82
2023/06/25 10:29:50;;;;;;;6.13;5.63;;;28.90;95.30;;;;;;6153524;23;20009;-80
2023/06/25 10:32:23;;;;;;;10.90;6.38;;;28.90;94.90;;;;;;6159231;23;20304;-82
2023/06/25 10:34:58;;;;;;;5.05;4.57;;;28.90;93.40;;;;;;6150625;23;20017;-83
2023/06/25 10:37:28;;;;;;;;;;;28.80;94.00;;;;;;6155851;23;20013;-82
2023/06/25 10:40:04;;;;;;;5.60;5.10;;;28.80;95.00;;;;;;6157479;23;19987;-82
2023/06/25 10:42:31;;;;;;;6.97;6.28;;;28.90;95.30;;;;;;6155423;23;20013;-81
2023/06/25 10:44:57;;;;;;;5.55;5.05;;;28.90;93.40;;;;;;6153820;23;20017;-82
2023/06/25 10:47:23;;;;;;;6.53;5.93;;;28.70;94.00;;;;;;6154229;23;20015;-81
2023/06/25 10:49:48;;;;;;;7.05;6.35;;;28.60;94.70;;;;;;6177059;23;20029;-80
2023/06/25 10:52:14;;;;;;;6.30;5.80;;;28.20;93.60;;;;;;6153463;23;20010;-80
2023/06/25 10:54:40;;;;;;;6.13;5.63;;;28.00;94.00;;;;;;6152541;23;20017;-82
2023/06/25 10:57:10;;;;;;;6.40;5.47;;;27.80;94.80;;;;;;6153247;23;20080;-83
2023/06/25 10:59:37;;;;;;;6.95;6.30;;;27.70;95.60;;;;;;6179190;23;20006;-82
2023/06/25 11:02:21;;;;;;;7.07;5.78;;;27.70;95.10;;;;;;6152996;23;20032;-81
2023/06/25 11:04:51;;;;;;;6.10;5.55;;;27.70;94.80;;;;;;6154635;23;20009;-82
2023/06/25 11:07:19;;;;;;;6.28;5.68;;;27.70;96.30;;;;;;6153484;23;20506;-82
2023/06/25 11:09:46;;;;;;;6.63;6.03;;;27.70;95.60;;;;;;6155039;23;20443;-82
2023/06/25 11:12:11;;;;;;;6.82;6.30;;;27.70;95.10;;;;;;6153398;23;20017;-82
2023/06/25 11:14:37;;;;;;;6.32;5.72;;;27.70;95.60;;;;;;6154561;23;20014;-83
2023/06/25 11:17:03;;;;;;;6.93;6.32;;;27.80;96.60;;;;;;6155579;23;20420;-82
2023/06/25 11:19:31;;;;;;;7.18;6.45;;;27.90;94.50;;;;;;6153941;23;20491;-82
2023/06/25 11:21:57;;;;;;;6.65;6.00;;;28.00;95.90;;;;;;6154388;23;20006;-81
2023/06/25 11:24:22;;;;;;;6.28;5.78;;;28.10;95.80;;;;;;6153418;23;20283;-82
2023/06/25 11:26:56;;;;;;;6.05;5.55;;;28.30;93.90;;;;;;6154175;23;20002;-83
2023/06/25 11:29:22;;;;;;;5.20;4.80;;;28.30;94.20;;;;;;6153889;23;20063;-83
2023/06/25 11:31:53;;;;;;;5.57;5.07;;;28.40;94.80;;;;;;6153451;23;20029;-81
2023/06/25 11:34:23;;;;;;;6.00;5.50;;;28.30;93.90;;;;;;6153125;23;20356;-79
2023/06/25 11:36:49;;;;;;;6.03;5.43;;;28.50;93.50;;;;;;6163498;23;20002;-78
2023/06/25 11:39:15;;;;;;;5.68;5.18;;;28.30;93.50;;;;;;6159103;23;20172;-82
2023/06/25 11:41:45;;;;;;;5.60;5.10;;;28.20;93.90;;;;;;6157285;23;20128;-80
2023/06/25 11:44:20;;;;;;;6.03;5.53;;;28.20;93.30;;;;;;6155809;23;20016;-81
2023/06/25 11:46:50;;;;;;;4.72;4.32;;;28.30;93.90;;;;;;6160040;23;20073;-82
2023/06/25 11:49:18;;;;;;;5.40;4.97;;;28.40;94.70;;;;;;6153385;23;20434;-81
2023/06/25 11:51:44;;;;;;;6.53;5.03;;;28.50;94.90;;;;;;6154928;23;20029;-82
2023/06/25 11:54:09;;;;;;;5.03;4.63;;;28.50;93.70;;;;;;6152551;23;20242;-82
2023/06/25 11:56:35;;;;;;;5.45;4.35;;;28.60;94.40;;;;;;6155524;23;20006;-82
2023/06/25 11:59:00;;;;;;;5.32;4.65;;;28.70;94.50;;;;;;6154061;23;20510;-82
2023/06/25 12:01:26;;;;;;;4.93;4.40;;;28.80;94.30;;;;;;6152709;23;20030;-81
2023/06/25 12:03:52;;;;;;;5.00;4.60;;;28.90;94.00;;;;;;6152262;23;20585;-82
2023/06/25 12:06:17;;;;;;;5.60;5.10;;;28.90;92.90;;;;;;6157549;23;20012;-82
2023/06/25 12:08:43;;;;;;;5.32;4.68;;;29.00;93.10;;;;;;6157979;23;20006;-81
2023/06/25 12:11:08;;;;;;;5.35;4.95;;;29.10;93.00;;;;;;6160645;23;19997;-82
2023/06/25 12:13:34;;;;;;;5.15;4.65;;;29.10;92.80;;;;;;6181295;23;20008;-82
2023/06/25 12:15:59;;;;;;;5.28;4.72;;;29.10;92.40;;;;;;6155726;23;20014;-82
2023/06/25 12:18:25;;;;;;;5.03;4.63;;;29.10;92.10;;;;;;6178986;23;20012;-81
2023/06/25 12:20:51;;;;;;;4.63;4.22;;;29.00;92.90;;;;;;6178358;23;20064;-81
2023/06/25 12:23:16;;;;;;;4.50;4.13;;;29.00;92.30;;;;;;6178447;23;20006;-82
2023/06/25 12:25:42;;;;;;;4.40;4.10;;;29.00;92.10;;;;;;6153336;23;20010;-82
2023/06/25 12:28:07;;;;;;;4.80;4.40;;;29.10;92.90;;;;;;6152795;23;20016;-80
2023/06/25 12:30:33;;;;;;;5.53;4.85;;;29.20;92.80;;;;;;6153080;23;20020;-81
2023/06/25 12:32:59;;;;;;;5.35;4.85;;;29.20;91.60;;;;;;6177414;23;20393;-81
2023/06/25 12:35:24;;;;;;;4.70;4.30;;;29.20;92.10;;;;;;6148326;23;20016;-80
2023/06/25 12:37:50;;;;;;;6.22;4.80;;;29.20;91.00;;;;;;6154376;23;20487;-80
2023/06/25 12:40:16;;;;;;;4.57;4.07;;;29.20;91.10;;;;;;6155258;23;20002;-81